Time;durP1;ratioP1;P1;durP2;ratioP2;P2;SDS_P1;SDS_P2;PMS_P1;PMS_P2;Temp;Humidity;BMP_temperature;BMP_pressure;BME280_temperature;BME280_humidity;BME280_pressure;Samples;Min_cycle;Max_cycle;Signal;HPM_P1;HPM_P2
2023/01/31 00:01:35;;;;;;;14.60;3.60;;;;;;;2.15;100.00;101207.22;4931705;28;20055;-80
2023/01/31 00:04:06;;;;;;;22.85;5.25;;;;;;;2.20;100.00;101209.94;4933273;29;20039;-77
2023/01/31 00:06:37;;;;;;;26.65;4.55;;;;;;;2.23;100.00;101204.91;4937500;28;20130;-77
2023/01/31 00:09:06;;;;;;;21.85;4.38;;;;;;;2.18;100.00;101200.38;4947517;28;20047;-81
2023/01/31 00:11:33;;;;;;;14.65;3.80;;;;;;;2.13;100.00;101200.25;4932658;29;20086;-78
2023/01/31 00:14:01;;;;;;;15.70;3.80;;;;;;;2.15;100.00;101209.81;4938318;28;20122;-79
2023/01/31 00:16:28;;;;;;;14.98;2.83;;;;;;;2.30;100.00;101218.91;4935317;28;20495;-79
2023/01/31 00:18:54;;;;;;;16.92;3.17;;;;;;;2.45;100.00;101213.34;4947607;28;20048;-78
2023/01/31 00:21:28;;;;;;;14.45;3.53;;;;;;;2.54;100.00;101210.22;4946212;28;20062;-79
2023/01/31 00:23:56;;;;;;;15.43;3.47;;;;;;;2.60;100.00;101223.34;4945507;28;20043;-80
2023/01/31 00:26:32;;;;;;;10.32;3.70;;;;;;;2.70;100.00;101214.16;4944653;28;20051;-77
2023/01/31 00:29:01;;;;;;;17.52;4.32;;;;;;;2.79;100.00;101219.63;4945648;28;20335;-77
2023/01/31 00:31:30;;;;;;;13.63;2.72;;;;;;;2.85;100.00;101216.38;4940379;28;20035;-77
2023/01/31 00:33:57;;;;;;;15.07;3.63;;;;;;;2.82;100.00;101217.16;4946332;28;20461;-77
2023/01/31 00:36:31;;;;;;;12.10;2.85;;;;;;;2.79;100.00;101220.53;4945939;28;20471;-77
2023/01/31 00:39:01;;;;;;;6.60;2.42;;;;;;;2.80;100.00;101211.03;4931859;29;20051;-78
2023/01/31 00:41:30;;;;;;;6.75;1.50;;;;;;;2.83;100.00;101215.44;4918987;28;20051;-76
2023/01/31 00:43:57;;;;;;;4.43;1.70;;;;;;;2.83;100.00;101216.34;4952526;28;20047;-77
2023/01/31 00:46:23;;;;;;;13.80;1.40;;;;;;;2.86;100.00;101220.72;4947714;29;21316;-77
2023/01/31 00:48:51;;;;;;;4.90;1.63;;;;;;;2.90;100.00;101231.19;4945957;28;20051;-79
2023/01/31 00:51:19;;;;;;;14.07;1.50;;;;;;;2.92;100.00;101232.13;4947170;28;20047;-82
2023/01/31 00:53:47;;;;;;;10.98;2.10;;;;;;;2.98;100.00;101240.06;4945428;28;20051;-80
2023/01/31 00:56:21;;;;;;;10.27;2.20;;;;;;;3.04;100.00;101234.22;4950743;28;20058;-77
2023/01/31 00:58:48;;;;;;;6.18;3.17;;;;;;;2.98;100.00;101242.66;4951055;28;20036;-77
2023/01/31 01:01:23;;;;;;;6.68;2.47;;;;;;;2.94;100.00;101242.53;4936093;29;20414;-81
2023/01/31 01:03:50;;;;;;;16.65;2.67;;;;;;;2.94;100.00;101234.75;4933911;29;20047;-77
2023/01/31 01:06:17;;;;;;;11.50;2.15;;;;;;;2.93;100.00;101241.66;4950713;29;20044;-79
2023/01/31 01:08:44;;;;;;;7.80;2.30;;;;;;;2.90;100.00;101243.25;4949927;28;20047;-78
2023/01/31 01:11:15;;;;;;;10.25;2.08;;;;;;;2.85;100.00;101243.09;4945728;28;20050;-80
2023/01/31 01:13:42;;;;;;;20.58;2.72;;;;;;;2.70;100.00;101247.75;4948542;28;20051;-78
2023/01/31 01:16:16;;;;;;;14.48;2.55;;;;;;;2.56;100.00;101258.53;4925916;29;20047;-77
2023/01/31 01:18:45;;;;;;;12.27;2.53;;;;;;;2.54;100.00;101259.31;4952441;28;20039;-77
2023/01/31 01:21:15;;;;;;;13.25;2.70;;;;;;;2.48;100.00;101268.63;4943401;28;20047;-79
2023/01/31 01:23:42;;;;;;;13.32;3.55;;;;;;;2.41;100.00;101264.09;4943896;28;20043;-78
2023/01/31 01:26:22;;;;;;;15.63;2.42;;;;;;;2.37;100.00;101267.34;4931356;29;20043;-76
2023/01/31 01:28:50;;;;;;;14.40;2.25;;;;;;;2.21;100.00;101263.38;4934437;29;20047;-77
2023/01/31 01:31:18;;;;;;;19.23;3.20;;;;;;;2.13;100.00;101275.16;4952494;29;20039;-81
2023/01/31 01:33:46;;;;;;;19.48;3.33;;;;;;;2.05;100.00;101276.59;4954271;29;20047;-78
2023/01/31 01:36:17;;;;;;;22.70;4.85;;;;;;;2.04;100.00;101283.44;4954889;28;20525;-78
2023/01/31 01:38:45;;;;;;;21.73;3.15;;;;;;;2.02;100.00;101294.53;4938188;28;20081;-81
2023/01/31 01:41:13;;;;;;;15.25;4.15;;;;;;;1.98;100.00;101280.63;4950431;28;20059;-85
2023/01/31 01:43:56;;;;;;;13.85;2.78;;;;;;;2.00;100.00;101298.78;4952231;28;20048;-80
2023/01/31 01:46:44;;;;;;;13.93;3.30;;;;;;;2.13;100.00;101295.81;4953502;28;20054;-78
2023/01/31 01:49:31;;;;;;;16.27;3.10;;;;;;;2.03;100.00;101286.84;4956630;28;20047;-77
2023/01/31 01:52:02;;;;;;;18.83;5.28;;;;;;;1.98;100.00;101304.75;4942617;28;20148;-79
2023/01/31 01:54:42;;;;;;;10.13;2.25;;;;;;;1.92;100.00;101296.78;4945767;28;20044;-78
2023/01/31 01:57:10;;;;;;;15.65;3.05;;;;;;;1.90;100.00;101303.59;4935048;29;20054;-79
2023/01/31 01:59:49;;;;;;;18.75;4.03;;;;;;;1.98;100.00;101309.94;4952245;28;20043;-77
2023/01/31 02:02:17;;;;;;;15.07;2.75;;;;;;;2.10;100.00;101308.59;4953302;28;20058;-79
2023/01/31 02:04:47;;;;;;;17.48;2.85;;;;;;;2.16;100.00;101314.00;4953652;28;20073;-79
2023/01/31 02:07:14;;;;;;;10.40;3.03;;;;;;;2.31;100.00;101309.38;4952657;29;20509;-77
2023/01/31 02:09:59;;;;;;;12.18;2.85;;;;;;;2.47;100.00;101309.91;4931936;29;20035;-76
2023/01/31 02:12:25;;;;;;;5.85;2.40;;;;;;;2.57;100.00;101312.00;4918073;28;21538;-81
2023/01/31 02:14:53;;;;;;;11.95;2.83;;;;;;;2.66;100.00;101306.28;4951120;28;20051;-77
2023/01/31 02:17:20;;;;;;;15.77;2.65;;;;;;;2.72;100.00;101315.94;4946537;28;20386;-79
2023/01/31 02:20:16;;;;;;;9.88;3.05;;;;;;;2.78;100.00;101310.97;4934383;29;20047;-77
2023/01/31 02:23:03;;;;;;;18.13;3.65;;;;;;;2.80;100.00;101310.19;4942974;28;20055;-81
2023/01/31 02:26:42;;;;;;;17.13;2.58;;;;;;;2.80;100.00;101311.88;4953312;28;20052;-77
2023/01/31 02:29:39;;;;;;;11.50;2.85;;;;;;;2.74;100.00;101296.19;4894993;29;20504;-77
2023/01/31 02:32:30;;;;;;;7.05;1.92;;;;;;;2.65;100.00;101315.72;4949230;29;20185;-80
2023/01/31 02:35:42;;;;;;;15.00;4.95;;;;;;;2.60;100.00;101312.09;4950690;28;20949;-78
2023/01/31 02:38:50;;;;;;;13.45;2.28;;;;;;;2.51;100.00;101324.69;4953450;28;20054;-77
2023/01/31 02:41:43;;;;;;;15.85;2.95;;;;;;;2.44;100.00;101320.16;4936382;29;20050;-81
2023/01/31 02:47:49;;;;;;;13.52;1.95;;;;;;;2.58;100.00;101312.84;4934695;29;20186;-80
2023/01/31 02:50:27;;;;;;;10.43;2.47;;;;;;;2.63;100.00;101319.06;4948482;28;20486;-82
2023/01/31 02:53:10;;;;;;;11.82;2.55;;;;;;;2.67;100.00;101317.47;4931495;29;20095;-80
2023/01/31 02:58:31;;;;;;;15.63;3.20;;;;;;;2.73;100.00;101333.19;4948209;28;20106;-78
2023/01/31 03:01:02;;;;;;;12.63;3.00;;;;;;;2.76;100.00;101326.41;4938724;28;20047;-77
2023/01/31 03:03:33;;;;;;;14.25;3.10;;;;;;;2.76;100.00;101323.81;4952313;28;20586;-78
2023/01/31 03:06:34;;;;;;;16.52;2.78;;;;;;;2.82;100.00;101310.25;4950933;28;21171;-77
2023/01/31 03:09:21;;;;;;;17.48;3.40;;;;;;;2.87;100.00;101333.66;4956033;28;20066;-77
2023/01/31 03:12:33;;;;;;;12.70;3.17;;;;;;;2.89;100.00;101330.28;4949672;28;20454;-78
2023/01/31 03:15:17;;;;;;;14.27;3.63;;;;;;;2.90;100.00;101316.53;4951029;29;20058;-76
2023/01/31 03:18:03;;;;;;;13.38;2.63;;;;;;;2.85;100.00;101324.97;4945082;28;20157;-77
2023/01/31 03:20:43;;;;;;;14.52;3.47;;;;;;;2.86;100.00;101317.25;4928346;29;20171;-77
2023/01/31 03:23:21;;;;;;;6.18;2.20;;;;;;;2.87;100.00;101315.53;4953654;29;20466;-77
2023/01/31 03:25:50;;;;;;;13.55;2.88;;;;;;;2.87;100.00;101307.78;4940291;29;20050;-78
2023/01/31 03:28:46;;;;;;;10.80;2.58;;;;;;;2.79;100.00;101304.94;4951263;28;20050;-77
2023/01/31 03:32:38;;;;;;;14.90;3.35;;;;;;;2.64;100.00;101303.59;4922640;29;20040;-78
2023/01/31 03:35:20;;;;;;;22.77;3.45;;;;;;;2.44;100.00;101296.91;4948397;29;20074;-79
2023/01/31 03:38:26;;;;;;;19.48;4.03;;;;;;;2.22;100.00;101278.06;4954695;28;20891;-79
2023/01/31 03:41:53;;;;;;;11.45;2.75;;;;;;;2.09;100.00;101276.75;4931065;29;20479;-77
2023/01/31 03:44:46;;;;;;;11.77;3.15;;;;;;;2.00;100.00;101281.56;4941941;29;20054;-77
2023/01/31 03:47:28;;;;;;;13.25;2.72;;;;;;;1.98;100.00;101288.38;4958373;28;20050;-80
2023/01/31 03:50:01;;;;;;;18.63;3.00;;;;;;;1.92;100.00;101280.44;4940974;29;20046;-77
2023/01/31 03:52:44;;;;;;;11.55;2.70;;;;;;;1.89;100.00;101283.78;4933772;29;20035;-77
2023/01/31 03:55:19;;;;;;;16.50;5.05;;;;;;;1.86;100.00;101280.19;4949718;28;20043;-78
2023/01/31 03:57:52;;;;;;;15.23;2.53;;;;;;;1.78;100.00;101285.94;4937438;29;20039;-78
2023/01/31 04:00:21;;;;;;;16.85;2.10;;;;;;;1.67;100.00;101288.94;4937784;29;20047;-77
2023/01/31 04:02:55;;;;;;;9.10;2.22;;;;;;;1.69;100.00;101280.44;4926690;29;20040;-77
2023/01/31 04:05:29;;;;;;;19.85;3.45;;;;;;;1.74;100.00;101281.50;4953462;28;20039;-77
2023/01/31 04:07:56;;;;;;;18.42;3.40;;;;;;;1.75;100.00;101279.81;4951436;29;20067;-79
2023/01/31 04:10:25;;;;;;;10.18;2.67;;;;;;;1.78;100.00;101273.03;4938704;29;20080;-77
2023/01/31 04:12:52;;;;;;;14.57;3.03;;;;;;;1.76;100.00;101277.28;4951189;28;20344;-77
2023/01/31 04:15:21;;;;;;;15.23;3.92;;;;;;;1.84;100.00;101287.88;4950881;28;20522;-78
2023/01/31 04:17:48;;;;;;;20.08;4.57;;;;;;;2.02;100.00;101277.34;4949222;28;20053;-77
2023/01/31 04:27:18;;;;;;;9.43;2.20;;;;;;;1.91;100.00;101295.03;4875435;29;20474;-77
2023/01/31 04:29:44;;;;;;;8.98;2.00;;;;;;;1.87;100.00;101288.00;4878215;29;20085;-77
2023/01/31 04:32:11;;;;;;;8.85;2.60;;;;;;;2.00;100.00;101293.63;4917641;29;20056;-77
2023/01/31 04:34:37;;;;;;;11.93;2.25;;;;;;;2.15;100.00;101297.63;4933711;29;20062;-77
2023/01/31 04:37:04;;;;;;;16.08;2.55;;;;;;;2.27;100.00;101298.91;4934232;29;20043;-78
2023/01/31 04:39:30;;;;;;;14.80;2.88;;;;;;;2.32;100.00;101289.56;4940782;29;20035;-78
2023/01/31 04:41:57;;;;;;;9.65;3.33;;;;;;;2.51;100.00;101293.69;4925775;29;20050;-78
2023/01/31 04:44:23;;;;;;;13.40;2.70;;;;;;;2.51;100.00;101282.47;4914489;29;20043;-78
2023/01/31 04:46:50;;;;;;;10.77;2.58;;;;;;;2.48;100.00;101288.44;4928652;29;20046;-78
2023/01/31 04:49:16;;;;;;;10.45;2.17;;;;;;;2.48;100.00;101286.69;4942990;28;20054;-78
2023/01/31 04:51:43;;;;;;;12.98;2.72;;;;;;;2.40;100.00;101290.75;4914106;29;20071;-76
2023/01/31 04:54:09;;;;;;;12.68;2.78;;;;;;;2.28;100.00;101295.47;4933026;29;20490;-82
2023/01/31 04:56:36;;;;;;;11.10;3.28;;;;;;;2.30;100.00;101296.41;4928572;29;20039;-78
2023/01/31 04:59:02;;;;;;;15.02;2.42;;;;;;;2.35;100.00;101300.03;4946812;29;20054;-77
2023/01/31 05:01:29;;;;;;;11.35;1.92;;;;;;;2.42;100.00;101298.53;4930284;29;20110;-77
2023/01/31 05:03:56;;;;;;;11.48;2.25;;;;;;;2.40;100.00;101295.00;4942627;29;20047;-78
2023/01/31 05:06:22;;;;;;;7.35;1.83;;;;;;;2.38;100.00;101304.44;4932064;29;20039;-77
2023/01/31 05:08:51;;;;;;;16.67;2.92;;;;;;;2.39;100.00;101295.88;4933190;29;20507;-77
2023/01/31 05:11:18;;;;;;;9.43;2.22;;;;;;;2.43;100.00;101293.41;4934297;29;20142;-77
2023/01/31 05:13:51;;;;;;;19.38;4.63;;;;;;;2.50;100.00;101291.91;4933228;29;20051;-78
2023/01/31 05:16:18;;;;;;;8.50;2.08;;;;;;;2.48;100.00;101289.28;4946482;29;20695;-77
2023/01/31 05:18:44;;;;;;;15.48;3.33;;;;;;;2.54;100.00;101292.91;4937346;29;20051;-79
2023/01/31 05:21:11;;;;;;;12.00;2.47;;;;;;;2.57;100.00;101293.91;4933630;29;20059;-77
2023/01/31 05:23:38;;;;;;;40.97;14.57;;;;;;;2.61;100.00;101289.72;4902929;29;20138;-76
2023/01/31 05:26:05;;;;;;;8.50;3.28;;;;;;;2.55;100.00;101287.78;4922635;29;20051;-76
2023/01/31 05:28:31;;;;;;;13.27;3.05;;;;;;;2.59;100.00;101281.03;4935906;29;20043;-79
2023/01/31 05:31:06;;;;;;;8.88;2.45;;;;;;;2.62;100.00;101265.59;4932674;29;20063;-77
2023/01/31 05:33:33;;;;;;;10.00;1.90;;;;;;;2.72;100.00;101271.97;4945135;29;20043;-76
2023/01/31 05:36:00;;;;;;;16.35;4.70;;;;;;;2.75;100.00;101272.06;4935492;29;20054;-76
2023/01/31 05:38:27;;;;;;;20.42;3.47;;;;;;;2.80;100.00;101275.69;4916166;29;20044;-77
2023/01/31 05:40:54;;;;;;;13.75;2.95;;;;;;;2.76;100.00;101273.84;4922620;29;20039;-76
2023/01/31 05:43:20;;;;;;;7.97;2.22;;;;;;;2.77;100.00;101271.28;4929520;29;20074;-77
2023/01/31 05:45:49;;;;;;;8.98;2.88;;;;;;;2.83;100.00;101283.56;4917800;29;20043;-77
2023/01/31 05:48:15;;;;;;;9.18;2.15;;;;;;;2.82;100.00;101276.63;4932353;29;20473;-78
2023/01/31 05:50:42;;;;;;;18.30;4.40;;;;;;;2.88;100.00;101274.25;4910824;29;20048;-78
2023/01/31 05:53:08;;;;;;;15.85;3.30;;;;;;;2.93;100.00;101269.22;4945388;29;20044;-79
2023/01/31 05:55:35;;;;;;;17.58;2.75;;;;;;;2.92;100.00;101280.38;4931646;29;20057;-76
2023/01/31 05:58:01;;;;;;;11.65;2.63;;;;;;;2.94;100.00;101270.97;4944905;29;20052;-77
2023/01/31 06:00:28;;;;;;;11.38;2.55;;;;;;;2.97;100.00;101277.13;4940240;29;20102;-81
2023/01/31 06:02:58;;;;;;;7.00;1.77;;;;;;;2.91;100.00;101260.53;4946185;29;20051;-77
2023/01/31 06:05:25;;;;;;;9.07;1.83;;;;;;;2.93;100.00;101264.94;4932829;29;20687;-76
2023/01/31 06:07:51;;;;;;;8.05;2.53;;;;;;;2.97;100.00;101268.47;4913432;29;20047;-78
2023/01/31 06:10:18;;;;;;;13.10;2.40;;;;;;;2.97;100.00;101266.78;4931406;29;20462;-77
2023/01/31 06:12:44;;;;;;;19.50;2.67;;;;;;;2.96;100.00;101261.56;4926182;29;20794;-76
2023/01/31 06:15:11;;;;;;;14.65;2.47;;;;;;;2.95;100.00;101258.09;4944354;29;20044;-77
2023/01/31 06:17:37;;;;;;;12.57;2.45;;;;;;;2.98;100.00;101245.22;4928618;29;20047;-76
2023/01/31 06:20:05;;;;;;;12.23;2.70;;;;;;;3.01;100.00;101253.94;4930002;29;20040;-76
2023/01/31 06:22:34;;;;;;;14.70;3.00;;;;;;;3.04;100.00;101247.16;4929813;29;20068;-79
2023/01/31 06:25:01;;;;;;;8.90;3.22;;;;;;;3.07;100.00;101246.38;4945845;28;20176;-76
2023/01/31 06:27:27;;;;;;;10.07;1.88;;;;;;;3.07;100.00;101255.00;4945204;28;20039;-77
2023/01/31 06:29:54;;;;;;;12.07;2.72;;;;;;;3.13;100.00;101246.56;4932467;29;20058;-76
2023/01/31 06:32:20;;;;;;;4.60;1.88;;;;;;;3.10;100.00;101247.34;4942821;28;20047;-80
2023/01/31 06:34:47;;;;;;;13.20;3.45;;;;;;;3.08;100.00;101243.84;4928298;29;20047;-76
2023/01/31 06:37:13;;;;;;;9.23;2.25;;;;;;;3.10;100.00;101247.34;4941258;28;20055;-79
2023/01/31 06:39:40;;;;;;;8.93;2.90;;;;;;;3.12;100.00;101240.50;4911058;29;20056;-78
2023/01/31 06:42:06;;;;;;;21.17;3.38;;;;;;;3.12;100.00;101245.69;4932186;29;20154;-77
2023/01/31 06:44:33;;;;;;;10.43;1.95;;;;;;;3.19;100.00;101235.53;4925030;29;20048;-79
2023/01/31 06:47:01;;;;;;;12.85;2.30;;;;;;;3.19;100.00;101241.56;4927099;29;21358;-77
2023/01/31 06:49:28;;;;;;;11.93;3.20;;;;;;;3.22;100.00;101228.75;4918604;28;20051;-76
2023/01/31 06:51:56;;;;;;;13.25;2.70;;;;;;;3.18;100.00;101220.81;4938714;29;20207;-81
2023/01/31 06:54:23;;;;;;;8.25;2.83;;;;;;;3.23;100.00;101230.47;4947215;28;20411;-76
2023/01/31 06:56:49;;;;;;;14.45;3.33;;;;;;;3.24;100.00;101229.66;4929262;29;20071;-77
2023/01/31 06:59:16;;;;;;;14.07;3.20;;;;;;;3.29;100.00;101214.28;4941213;28;20051;-78
2023/01/31 07:01:42;;;;;;;8.68;2.85;;;;;;;3.30;100.00;101218.63;4910994;29;20054;-77
2023/01/31 07:04:09;;;;;;;12.48;3.95;;;;;;;3.38;100.00;101217.13;4934622;28;20051;-77
2023/01/31 07:06:35;;;;;;;12.07;3.05;;;;;;;3.44;100.00;101212.16;4946623;29;20146;-77
2023/01/31 07:09:02;;;;;;;14.13;3.50;;;;;;;3.48;100.00;101206.22;4942792;28;20055;-77
2023/01/31 07:11:28;;;;;;;8.32;3.00;;;;;;;3.47;100.00;101207.03;4943088;28;20055;-76
2023/01/31 07:13:55;;;;;;;8.55;3.55;;;;;;;3.53;100.00;101203.75;4914112;29;20050;-77
2023/01/31 07:16:24;;;;;;;12.95;4.03;;;;;;;3.55;100.00;101191.75;4931418;29;20467;-78
2023/01/31 07:18:54;;;;;;;13.60;5.82;;;;;;;3.61;100.00;101175.50;4951049;28;20043;-76
2023/01/31 07:21:22;;;;;;;6.90;3.38;;;;;;;3.59;100.00;101167.69;4932200;29;20329;-76
2023/01/31 07:23:49;;;;;;;10.10;4.35;;;;;;;3.60;100.00;101172.03;4935845;29;20044;-77
2023/01/31 07:26:15;;;;;;;9.48;3.03;;;;;;;3.59;100.00;101164.22;4939045;29;20051;-77
2023/01/31 07:28:42;;;;;;;17.55;4.00;;;;;;;3.61;100.00;101162.53;4937877;29;20410;-77
2023/01/31 07:31:13;;;;;;;10.15;3.63;;;;;;;3.60;100.00;101164.28;4936913;29;20114;-76
2023/01/31 07:33:40;;;;;;;11.38;4.03;;;;;;;3.62;100.00;101154.84;4925282;29;20059;-78
2023/01/31 07:36:09;;;;;;;11.43;4.32;;;;;;;3.62;100.00;101151.38;4927141;29;20091;-77
2023/01/31 07:38:36;;;;;;;15.68;4.40;;;;;;;3.63;100.00;101146.22;4927948;29;20039;-78
2023/01/31 07:41:04;;;;;;;23.88;4.55;;;;;;;3.60;100.00;101148.75;4931479;29;20142;-77
2023/01/31 07:43:32;;;;;;;15.35;4.20;;;;;;;3.61;100.00;101145.31;4926621;29;20050;-77
2023/01/31 07:45:58;;;;;;;14.20;4.22;;;;;;;3.59;100.00;101138.34;4941023;29;20044;-78
2023/01/31 07:48:27;;;;;;;13.98;5.20;;;;;;;3.69;100.00;101137.75;4947349;29;20055;-77
2023/01/31 07:51:01;;;;;;;13.00;5.05;;;;;;;3.75;100.00;101130.13;4929614;29;20040;-76
2023/01/31 07:53:34;;;;;;;12.63;4.13;;;;;;;3.77;100.00;101137.97;4932170;29;20143;-78
2023/01/31 07:56:19;;;;;;;13.70;6.27;;;;;;;3.78;100.00;101134.53;4942055;29;20080;-76
2023/01/31 07:58:50;;;;;;;14.88;4.63;;;;;;;3.84;100.00;101134.69;4930613;29;20043;-78
2023/01/31 08:04:13;;;;;;;18.35;4.15;;;;;;;4.03;100.00;101122.22;4933494;29;20050;-79
2023/01/31 08:06:42;;;;;;;11.40;4.32;;;;;;;4.04;100.00;101116.19;4937433;29;20049;-77
2023/01/31 08:09:09;;;;;;;12.05;4.03;;;;;;;4.13;100.00;101114.72;4955421;29;20091;-77
2023/01/31 08:11:35;;;;;;;15.60;5.32;;;;;;;4.16;100.00;101105.25;4941627;29;20540;-81
2023/01/31 08:14:02;;;;;;;15.07;5.70;;;;;;;4.16;100.00;101098.38;4957752;29;20055;-79
2023/01/31 08:16:30;;;;;;;15.98;4.70;;;;;;;4.24;100.00;101102.03;4946272;29;20079;-80
2023/01/31 08:18:57;;;;;;;21.38;4.30;;;;;;;4.32;99.92;101083.19;4938402;29;20107;-80
2023/01/31 08:21:23;;;;;;;14.27;4.63;;;;;;;4.51;98.63;101079.31;4946524;29;20053;-83
2023/01/31 08:23:50;;;;;;;19.23;5.43;;;;;;;4.55;98.43;101079.41;4939453;28;20035;-83
2023/01/31 08:26:20;;;;;;;18.58;4.47;;;;;;;4.59;97.57;101088.16;4960627;28;20054;-83
2023/01/31 08:28:48;;;;;;;16.85;4.15;;;;;;;4.58;97.84;101071.69;4954747;28;20122;-77
2023/01/31 08:31:22;;;;;;;14.45;5.20;;;;;;;4.56;97.79;101068.22;4962051;28;20039;-84
2023/01/31 08:33:50;;;;;;;18.65;6.57;;;;;;;4.58;97.12;101083.81;4965860;28;20095;-80
2023/01/31 08:36:20;;;;;;;17.77;4.90;;;;;;;4.54;97.79;101080.25;4939273;29;20050;-79
2023/01/31 08:38:48;;;;;;;15.75;5.28;;;;;;;4.54;98.14;101077.66;4958621;28;20102;-77
2023/01/31 08:41:16;;;;;;;11.23;4.28;;;;;;;4.59;98.03;101052.72;4967423;28;20055;-84
2023/01/31 08:43:43;;;;;;;13.63;4.72;;;;;;;4.59;97.70;101062.22;4961911;29;20082;-78
2023/01/31 08:46:10;;;;;;;19.38;5.32;;;;;;;4.62;97.24;101057.09;4937536;28;20043;-77
2023/01/31 08:48:38;;;;;;;13.27;4.93;;;;;;;4.74;96.84;101054.75;4956459;29;20035;-78
2023/01/31 08:51:07;;;;;;;21.92;5.68;;;;;;;4.79;96.52;101041.88;4942537;28;20906;-80
2023/01/31 08:53:37;;;;;;;14.90;5.03;;;;;;;4.80;96.16;101044.50;4952739;28;20031;-78
2023/01/31 08:56:08;;;;;;;12.40;5.32;;;;;;;4.79;96.43;101045.34;4924204;29;20150;-80
2023/01/31 08:58:38;;;;;;;11.70;5.40;;;;;;;4.85;95.41;101030.75;4940079;28;20098;-78
2023/01/31 09:01:11;;;;;;;12.48;5.32;;;;;;;4.87;94.71;101031.69;4939272;29;20039;-77
2023/01/31 09:03:38;;;;;;;12.05;4.72;;;;;;;4.91;94.63;101030.88;4935218;29;20146;-77
2023/01/31 09:06:16;;;;;;;12.23;5.30;;;;;;;4.92;94.83;101030.06;4939150;29;20055;-77
2023/01/31 09:08:43;;;;;;;13.73;5.68;;;;;;;4.91;94.18;101015.31;4956033;28;20469;-78
2023/01/31 09:11:09;;;;;;;20.15;5.18;;;;;;;4.89;94.13;101015.31;4958996;28;20510;-77
2023/01/31 09:13:36;;;;;;;19.83;6.10;;;;;;;4.87;94.01;101024.75;4927727;29;20047;-78
2023/01/31 09:16:11;;;;;;;15.73;5.72;;;;;;;4.84;94.27;101016.91;4921703;29;20040;-79
2023/01/31 09:18:40;;;;;;;23.30;7.40;;;;;;;4.86;94.52;101025.59;4923156;29;20040;-79
2023/01/31 09:21:16;;;;;;;14.57;5.65;;;;;;;4.85;94.46;101018.69;4950885;28;20134;-79
2023/01/31 09:23:42;;;;;;;17.92;5.18;;;;;;;4.84;94.17;101032.50;4936420;29;20051;-77
2023/01/31 09:26:12;;;;;;;13.48;4.82;;;;;;;4.87;94.88;101029.09;4923689;29;20047;-80
2023/01/31 09:28:41;;;;;;;11.60;4.65;;;;;;;4.78;95.43;101022.88;4929978;29;20045;-78
2023/01/31 09:31:15;;;;;;;13.05;5.18;;;;;;;4.70;97.06;101039.09;4936273;29;20051;-80
2023/01/31 09:33:41;;;;;;;7.65;4.32;;;;;;;4.64;98.77;101027.75;4926902;29;20343;-77
2023/01/31 09:36:14;;;;;;;17.50;4.93;;;;;;;4.56;100.00;101025.84;4935135;28;20051;-77
2023/01/31 09:38:41;;;;;;;12.65;5.40;;;;;;;4.37;100.00;101025.44;4932829;29;20047;-76
2023/01/31 09:41:32;;;;;;;21.33;6.70;;;;;;;4.20;100.00;101013.78;4938124;29;20051;-76
2023/01/31 09:44:23;;;;;;;14.32;7.53;;;;;;;4.05;100.00;101017.78;4946614;29;20048;-76
2023/01/31 09:47:21;;;;;;;16.95;6.35;;;;;;;3.99;100.00;101004.72;4927444;29;20051;-79
2023/01/31 09:50:02;;;;;;;13.73;6.40;;;;;;;3.91;100.00;101009.72;4961598;28;20054;-79
2023/01/31 09:52:30;;;;;;;19.17;6.82;;;;;;;3.88;100.00;100990.63;4939161;29;20043;-79
2023/01/31 09:54:57;;;;;;;17.88;9.02;;;;;;;3.83;100.00;100982.72;4960517;28;20415;-77
2023/01/31 09:57:49;;;;;;;11.35;6.15;;;;;;;3.81;100.00;100990.47;4930495;28;20039;-76
2023/01/31 10:00:45;;;;;;;16.65;7.28;;;;;;;3.84;100.00;100979.31;4948665;28;20059;-79
2023/01/31 10:03:24;;;;;;;13.20;6.25;;;;;;;3.85;100.00;100987.97;4936867;28;20054;-77
2023/01/31 10:06:08;;;;;;;13.05;6.40;;;;;;;3.87;100.00;100981.97;4934316;29;20046;-78
2023/01/31 10:09:10;;;;;;;11.55;5.68;;;;;;;3.96;100.00;100963.16;4940643;29;20487;-76
2023/01/31 10:11:47;;;;;;;13.65;6.75;;;;;;;4.02;100.00;100970.22;4965223;28;20054;-76
2023/01/31 10:14:31;;;;;;;20.13;6.20;;;;;;;4.04;100.00;100974.59;4935634;29;20126;-76
2023/01/31 10:17:16;;;;;;;10.02;4.97;;;;;;;4.07;100.00;100982.44;4936799;29;20050;-77
2023/01/31 10:20:10;;;;;;;9.48;5.63;;;;;;;4.16;100.00;100973.13;4927367;29;20110;-78
2023/01/31 10:22:56;;;;;;;14.20;5.10;;;;;;;4.16;100.00;100948.09;4948295;29;20054;-81
2023/01/31 10:26:08;;;;;;;13.73;5.63;;;;;;;4.20;100.00;100942.13;4935467;29;20039;-79
2023/01/31 10:28:48;;;;;;;8.10;4.85;;;;;;;4.20;100.00;100944.72;4936287;29;20106;-77
2023/01/31 10:31:41;;;;;;;6.78;4.15;;;;;;;4.22;100.00;100945.63;4942116;29;20505;-83
2023/01/31 10:34:50;;;;;;;9.02;4.50;;;;;;;4.26;100.00;100944.88;4933693;29;20043;-77
2023/01/31 10:37:34;;;;;;;11.57;4.82;;;;;;;4.30;100.00;100930.22;4919892;29;20452;-80
2023/01/31 10:40:19;;;;;;;9.75;4.30;;;;;;;4.30;100.00;100930.22;4934837;29;20134;-79
2023/01/31 10:42:52;;;;;;;6.55;4.57;;;;;;;4.33;100.00;100922.53;4956689;28;20135;-80
2023/01/31 10:45:22;;;;;;;10.63;5.05;;;;;;;4.32;100.00;100909.56;4938151;28;20098;-77
2023/01/31 10:47:58;;;;;;;11.68;5.03;;;;;;;4.35;100.00;100910.47;4949140;28;20043;-76
2023/01/31 10:50:42;;;;;;;8.60;4.60;;;;;;;4.33;100.00;100894.03;4922101;28;20079;-77
2023/01/31 10:53:35;;;;;;;12.73;6.10;;;;;;;4.37;100.00;100889.75;4923052;28;20137;-77
2023/01/31 10:56:23;;;;;;;14.43;5.20;;;;;;;4.38;100.00;100884.63;4929029;29;20063;-76
2023/01/31 10:58:52;;;;;;;14.13;6.22;;;;;;;4.39;100.00;100867.34;4945653;28;20131;-77
2023/01/31 11:01:19;;;;;;;11.73;4.93;;;;;;;4.42;100.00;100863.09;4937388;29;20043;-82
2023/01/31 11:03:52;;;;;;;7.60;6.03;;;;;;;4.43;100.00;100867.47;4946655;28;20047;-76
2023/01/31 11:06:20;;;;;;;11.80;4.82;;;;;;;4.42;100.00;100865.69;4938449;29;20044;-76
2023/01/31 11:08:59;;;;;;;7.95;5.03;;;;;;;4.53;100.00;100858.13;4932610;29;20039;-77
2023/01/31 11:11:28;;;;;;;14.98;5.55;;;;;;;4.53;100.00;100857.25;4934043;28;20071;-77
2023/01/31 11:14:05;;;;;;;8.38;5.07;;;;;;;4.63;100.00;100859.19;4918659;28;20043;-77
2023/01/31 11:16:38;;;;;;;12.48;6.65;;;;;;;4.66;100.00;100854.03;4933452;29;20039;-76
2023/01/31 11:19:21;;;;;;;10.55;5.47;;;;;;;4.74;100.00;100836.03;4916154;29;20486;-78
2023/01/31 11:21:51;;;;;;;15.70;5.78;;;;;;;4.80;100.00;100828.38;4952269;28;20389;-77
2023/01/31 11:24:23;;;;;;;11.90;5.35;;;;;;;4.79;100.00;100832.66;4934608;29;20134;-79
2023/01/31 11:27:00;;;;;;;15.82;6.90;;;;;;;4.74;100.00;100834.31;4902966;29;20048;-78
2023/01/31 11:29:36;;;;;;;18.45;6.25;;;;;;;4.79;100.00;100842.19;4928505;28;20054;-78
2023/01/31 11:32:07;;;;;;;10.48;5.18;;;;;;;4.77;100.00;100823.09;4927550;29;20050;-77
2023/01/31 11:34:33;;;;;;;10.10;5.15;;;;;;;4.76;100.00;100836.94;4934232;29;20055;-78
2023/01/31 11:37:18;;;;;;;12.18;5.75;;;;;;;4.71;100.00;100833.41;4951848;28;20809;-78
2023/01/31 11:40:26;;;;;;;9.73;5.28;;;;;;;4.72;100.00;100835.13;4924879;29;20043;-78
2023/01/31 11:43:02;;;;;;;15.57;5.90;;;;;;;4.76;100.00;100818.78;4920648;28;20063;-78
2023/01/31 11:45:32;;;;;;;12.90;6.05;;;;;;;4.74;100.00;100816.16;4931921;28;20043;-79
2023/01/31 11:48:10;;;;;;;17.02;6.47;;;;;;;4.72;100.00;100822.16;4933265;29;20051;-78
2023/01/31 11:50:41;;;;;;;11.32;6.68;;;;;;;4.67;100.00;100816.91;4937015;28;20053;-79
2023/01/31 11:53:20;;;;;;;13.07;7.75;;;;;;;4.68;100.00;100804.78;4935301;29;20409;-78
2023/01/31 11:55:50;;;;;;;10.75;5.75;;;;;;;4.66;100.00;100807.38;4910217;29;20054;-79
2023/01/31 11:58:22;;;;;;;17.75;7.57;;;;;;;4.61;100.00;100799.50;4926560;29;20043;-80
2023/01/31 12:00:59;;;;;;;16.92;7.35;;;;;;;4.62;100.00;100785.69;4939339;28;20051;-79
2023/01/31 12:03:27;;;;;;;16.63;8.32;;;;;;;4.71;100.00;100797.09;4958426;28;20171;-80
2023/01/31 12:06:30;;;;;;;17.73;8.52;;;;;;;4.70;100.00;100783.22;4938782;29;20044;-82